Tiempo atmosférico en la estación meteorológica de Girona Aeropuerto, Girona (143 m.)



Fecha
DESCASC
Temp. máxima en grados centígrados (hora)
DESCASC
Temp. mínima en grados centígrados (hora)
DESCASC
Temp. media en grados centígrados
DESCASC
Racha de viento máxima en m/sg (hora)
DESCASC
Velocidad máxima media en intervalos de 10 minutos(hora)
DESCASC
Precipitaciones diarias en mm
DESCASC
Precipitaciones de 00:00 a 06:00 en mm
DESCASC
Precipitaciones de 06:00 a 12:00 en mm
DESCASC
Precipitaciones de 12:00 a 18:00 en mm
DESCASC
Precipitaciones de 18:00 a 24:00 en mm
DESCASC
25-04-2019 21.3 (13:40) 11.2 (23:59) 16.2 16.11 (09:40) 11.39 (11:00) 0 0 0 0 0
24-04-2019 19.3 (14:00) 10.4 (07:10) 14.8 17.5 (16:10) 13.61 (16:10) 0 0 0 0 0
23-04-2019 21.1 (16:30) 12.2 (04:20) 16.7 13.89 (18:30) 10.83 (18:30) 1.3 0.6 0.7 0 0
22-04-2019 16.9 (15:20) 12.4 (00:00) 14.6 13.89 (11:00) 9.72 (11:00) 0.4 0 0.1 0 0.3
21-04-2019 17.6 (15:00) 11.5 (00:00) 14.6 13.89 (14:50) 10 (16:00) 0 0 0 0 0
20-04-2019 18.9 (12:40) 10.3 (00:00) 14.6 12.5 (10:40) 8.61 (10:40) 2.7 0 0 0 2.7
19-04-2019 19.9 (15:20) 11 (00:00) 15.4 13.33 (13:10) 9.17 (16:00) 0 0 0 0 0
18-04-2019 17.7 (15:50) 9.2 (00:00) 13.5 10.28 (17:20) 7.5 (17:20) 0 0 0 0 0
17-04-2019 18.7 (14:20) 6 (00:00) 12.4 10.83 (15:30) 8.06 (15:30) 0 0 0 0 0
16-04-2019 18.7 (15:40) 7.9 (00:00) 13.3 7.22 (14:50) 4.44 (14:50) 0.7 0.7 0 0 0
15-04-2019 -- (--) -- (--) -- 9.72 (15:50) -- (--) -- 0 -- 0 0
14-04-2019 18.6 (13:50) 4.2 (00:00) 11.4 8.33 (16:30) 5.83 (17:10) 0 0 0 0 0
13-04-2019 20.4 (14:50) 2.9 (00:00) 11.6 8.33 (16:10) 6.11 (17:40) 0 0 0 0 0
12-04-2019 19.2 (14:30) 7.1 (00:00) 13.2 11.39 (18:20) 8.61 (17:50) 0 0 0 0 0
11-04-2019 17.6 (11:20) 6.6 (00:00) 12.1 6.67 (11:50) 3.89 (16:30) 0.3 0 0.1 0.2 0
10-04-2019 19.2 (15:20) 3.8 (00:00) 11.5 8.33 (16:20) 5.83 (15:50) -- 0 0 -- 0
09-04-2019 17 (14:30) 7.8 (00:00) 12.4 9.17 (14:50) 7.5 (15:00) -- 0 -- 1.1 2.2
08-04-2019 20.5 (16:50) 2.4 (00:00) 11.5 7.22 (15:20) 4.44 (15:20) 0.8 0 0 0 0.8
07-04-2019 17.4 (14:10) 2.4 (00:00) 9.9 13.89 (14:10) 9.17 (13:20) 0 0 0 0 0
06-04-2019 17.4 (17:30) 7.3 (00:00) 12.3 12.5 (12:20) 8.61 (19:30) 1.3 1.2 0.1 0 0
05-04-2019 15.7 (14:10) 0.1 (00:00) 7.9 13.89 (11:50) 9.72 (12:00) 3.2 0 0 2 1.2
04-04-2019 14.6 (15:50) 2.4 (00:00) 8.5 -- (--) -- (--) -- 0 -- 0 0
03-04-2019 17.9 (12:40) 5.7 (00:00) 11.8 12.78 (14:40) 8.61 (13:30) 15.8 0 0.2 7.1 8.5
02-04-2019 -- (--) -- (--) -- -- (--) -- (--) -- 0 0 -- 15.5
01-04-2019 20.9 (14:30) 5.9 (00:00) 13.4 9.17 (14:50) 6.67 (16:40) 0 0 0 0 0
31-03-2019 18.9 (16:20) 2.5 (00:00) 10.7 7.22 (16:20) 5 (17:50) 0 0 0 0 0
30-03-2019 17.6 (14:20) 0.3 (00:00) 9 8.33 (14:30) 5.56 (16:20) 0 0 0 0 0
29-03-2019 -- (--) -- (--) -- -- (--) -- (--) -- 0 0 -- 0
28-03-2019 19.8 (13:00) 2.1 (00:00) 10.9 9.17 (13:50) 5.83 (14:00) 0 0 0 0 0
27-03-2019 20.4 (13:50) 4.2 (00:00) 12.3 10.83 (15:00) 6.67 (15:10) -- 0 -- 0 0

Gráficas

Temp. máximas Temp. mínimas Temp. medias Precipitaciones Rachas de viento máximas Velocidades máximas media en intervalos de 10 minutos

Datos horarios

Fecha y hora oficial Temperatura (ºC) Velocidad del viento (km/h) Dirección del viento Racha (km/h) Dirección de racha Precipitación (mm) Presión (hPa) Tendencia (hPa) Humedad (%)
2019-04-25 23:00:00 12.4 13 Sudoeste 22 Sur 0 996.3 2 90
2019-04-25 22:00:00 13.7 12 Sudoeste 21 Sudoeste 0 995.9 2.1 65
2019-04-25 21:00:00 14.9 6 Oeste 30 Sudoeste 0 995.4 1.7 58
2019-04-25 20:00:00 15.6 21 Sudoeste 39 Sudoeste 0 994.3 1.3 75
2019-04-25 19:00:00 16.3 29 Sudoeste 48 Sudoeste 0 993.8 0.5 68
2019-04-25 18:00:00 17.3 31 Sur 46 Sudoeste 0 993.7 -0.6 65
2019-04-25 17:00:00 18.9 30 Sur 54 Sur 0 993 -1.5 58
2019-04-25 16:00:00 19.7 17 Sudoeste 35 Oeste 0 993.3 -1.3 49
2019-04-25 15:00:00 19.9 23 Oeste 42 Oeste 0 994.3 0 48
2019-04-25 14:00:00 19.9 21 Sudoeste 37 Oeste 0 994.5 0.7 48
2019-04-25 13:00:00 18.5 17 Oeste 41 Oeste 0 994.6 1.2 53
2019-04-25 12:00:00 19.6 27 Oeste 54 Sudoeste 0 994.3 1.1 57
2019-04-25 11:00:00 17 41 Sudoeste 55 Sudoeste 0 993.8 0.8 71
2019-04-25 10:00:00 17.2 35 Sudoeste 58 Sudoeste 0 993.4 0.6 71
2019-04-25 09:00:00 14.2 29 Sur 45 Sudoeste 0 993.2 0.3 82
2019-04-25 08:00:00 13.5 30 Sur 42 Sur 0 993 -0.3 85
2019-04-25 07:00:00 13.7 20 Sur 37 Sur 0 992.8 -1.1 81
2019-04-25 06:00:00 13.7 21 Sur 35 Sur 0 992.9 -1.6 82
2019-04-25 05:00:00 13.5 20 Sur 39 Sur 0 993.3 -1.7 86
2019-04-25 04:00:00 13.6 24 Sur 35 Sur 0 993.9 -1.3 80
2019-04-25 03:00:00 13.2 13 Sur 22 Sur 0 994.5 -0.6 80
2019-04-25 02:00:00 12.6 8 Sur 26 Sur 0 995 -0.4 85
2019-04-25 01:00:00 11.5 22 Sudoeste 35 Sur 0 995.2 0.4 86
2019-04-25 00:00:00 12.2 29 Sudoeste 42 Sudoeste 0 995.1 1.1 76
2019-04-24 23:00:00 11.7 16 Sudoeste 26 Sudoeste 0 995.4 2.2 73
2019-04-24 22:00:00 11.2 17 Sudoeste 33 Sudoeste 0 994.8 2.6 76
2019-04-24 21:00:00 12.6 20 Sur 42 Sudoeste 0 994 2.6 69
2019-04-24 20:00:00 14.2 33 Sur 54 Sur 0 993.2 1.7 61
2019-04-24 19:00:00 16.2 38 Sur 55 Sur 0 992.2 0.6 55
2019-04-24 18:00:00 17.4 44 Sur 61 Sur 0 991.4 0 50
2019-04-24 17:00:00 17.7 47 Sur 63 Sur 0 991.5 0.5 47
2019-04-24 16:00:00 18.5 45 Sur 61 Sur 0 991.6 0.4 50
2019-04-24 15:00:00 18.6 40 Sur 58 Sur 0 991.4 0.7 46
2019-04-24 14:00:00 19.1 32 Sur 55 Sur 0 991 1 46
2019-04-24 13:00:00 17.7 39 Sudoeste 59 Sur 0 991.2 1.7 42
2019-04-24 12:00:00 18.6 34 Sudoeste 54 Sudoeste 0 990.7 2.1 41
2019-04-24 11:00:00 17.3 18 Sudoeste 32 Oeste 0 990 2.2 45
2019-04-24 10:00:00 15.4 18 Sudoeste 30 Sudoeste 0 989.5 2.6 61
2019-04-24 09:00:00 14.8 21 Sur 28 Sudoeste 0 988.6 2.4 79
2019-04-24 08:00:00 12.2 15 Sur 24 Sur 0 987.8 2 93
2019-04-24 07:00:00 10.6 8 Oeste 21 Sur 0 986.9 1.2 92
2019-04-24 06:00:00 11.4 9 Sudoeste 22 Sudoeste 0 986.2 0.3 90
2019-04-24 05:00:00 12.3 16 Sudoeste 26 Sur 0 985.8 0 88
2019-04-24 04:00:00 12.1 16 Sur 22 Sudoeste 0 985.7 0.5 91
2019-04-24 03:00:00 12.9 16 Sur 28 Sur 0 985.9 1.2 92
2019-04-24 02:00:00 12.8 22 Sur 33 Sur 0 985.8 1.2 95
2019-04-24 01:00:00 12.8 16 Sur 28 Sur 0 985.2 1.1 96
2019-04-24 00:00:00 13.4 23 Sur 35 Sur 0 984.7 1.2 95
2019-04-23 23:00:00 12.9 18 Sur 26 Sur 0 984.6 2 94
2019-04-23 22:00:00 12.8 14 Sur 28 Sur 0 984.1 1.7 90
2019-04-23 21:00:00 14.1 16 Sur 30 Sur 0 983.5 1.6 89
2019-04-23 20:00:00 15 24 Sur 41 Sur 0 982.6 1.3 83
2019-04-23 19:00:00 16.8 34 Sur 50 Sur 0 982.4 0.8 73
2019-04-23 18:00:00 19 32 Sur 45 Sur 0 981.9 0.1 61
2019-04-23 17:00:00 20.5 31 Sur 41 Sur 0 981.3 -1 58
2019-04-23 16:00:00 20.6 23 Sur 37 Sur 0 981.6 -0.9 60
2019-04-23 15:00:00 19.8 17 Sur 30 Sur 0 981.8 -0.6 67
2019-04-23 14:00:00 17.2 16 Sudoeste 24 Sudoeste 0 982.3 0.2 76
2019-04-23 13:00:00 17 4 Sur 21 Nordeste 0 982.5 0.9 78
2019-04-23 12:00:00 16.6 15 Nordeste 32 Este 0 982.4 1 83
2019-04-23 11:00:00 15.8 17 Nordeste 26 Nordeste 0 982.1 0.8 85
2019-04-23 10:00:00 14.4 15 Norte 26 Nordeste 0 981.6 0.3 91
2019-04-23 09:00:00 12.7 18 Norte 26 Norte 0.4 981.4 0.3 96
2019-04-23 08:00:00 12.3 20 Norte 30 Norte 0.3 981.3 0 98
2019-04-23 07:00:00 12.4 14 Norte 30 Norte 0 981.3 -0.3 97
2019-04-23 06:00:00 12.4 15 Norte 24 Norte 0.1 981.1 -0.6 96
2019-04-23 05:00:00 12.2 14 Norte 32 Norte 0.1 981.3 -0.8 97
2019-04-23 04:00:00 12.3 18 Norte 28 Norte 0 981.6 -1.3 97
2019-04-23 03:00:00 12.3 19 Norte 30 Norte 0 981.7 -1.8 97
2019-04-23 02:00:00 12.3 17 Norte 32 Norte 0 982.1 -1.6 97
2019-04-23 01:00:00 12.4 18 Norte 32 Norte 0.4 982.9 -1.1 97
2019-04-23 00:00:00 12.4 18 Norte 33 Nordeste 0.3 983.5 -0.5 96
2019-04-22 23:00:00 12.5 18 Norte 33 Norte 0 983.7 0.1 92
2019-04-22 22:00:00 13.1 26 Norte 37 Nordeste 0 984 0.2 85
2019-04-22 21:00:00 14.5 24 Nordeste 35 Nordeste 0 984 -0.2 72
2019-04-22 20:00:00 14.6 19 Nordeste 39 Nordeste 0 983.6 -0.9 68
2019-04-22 19:00:00 15 26 Nordeste 37 Nordeste 0 983.8 -1.3 66
2019-04-22 18:00:00 15.1 24 Nordeste 45 Norte 0 984.2 -1.2 64
2019-04-22 17:00:00 15.1 27 Nordeste 41 Norte 0 984.5 -1.7 66
2019-04-22 16:00:00 16.2 23 Nordeste 45 Norte 0 985.1 -1.1 65
2019-04-22 15:00:00 15.6 28 Norte 39 Norte 0 985.4 -1.7 63
2019-04-22 14:00:00 15.9 24 Nordeste 46 Nordeste 0 986.2 -0.8 63
2019-04-22 13:00:00 15.9 30 Norte 45 Norte 0 986.2 -1.5 65
2019-04-22 12:00:00 15 26 Nordeste 48 Nordeste 0 987.1 -0.2 67
2019-04-22 11:00:00 16.4 35 Nordeste 50 Nordeste 0 987 -0.4 64
2019-04-22 10:00:00 15.3 24 Norte 39 Norte 0.1 987.7 0.1 69
2019-04-22 09:00:00 14.2 30 Norte 41 Nordeste 0 987.3 -0.8 65
2019-04-22 08:00:00 13.8 14 Nordeste 35 Norte 0 987.4 -1.3 63
2019-04-22 07:00:00 13.6 24 Norte 33 Norte 0 987.6 -1.8 65
2019-04-22 06:00:00 13 25 Nordeste 37 Nordeste 0 988.1 -3 68
2019-04-22 05:00:00 13.3 26 Nordeste 39 Nordeste 0 988.7 -3.1 64
2019-04-22 04:00:00 13.3 17 Norte 26 Norte 0 989.4 -3.2 64
2019-04-22 03:00:00 13.2 14 Nordeste 24 Norte 0 991.1 -1.9 65
2019-04-22 02:00:00 13.2 17 Nordeste 33 Norte 0 991.8 -2.5 64
2019-04-22 01:00:00 13.6 23 Nordeste 39 Norte 0 992.6 -1.6 63
2019-04-22 00:00:00 13.6 20 Norte 35 Norte 0 993 -1.4 66
2019-04-21 23:00:00 13.5 26 Norte 41 Nordeste 0 994.3 0.1 69
2019-04-21 22:00:00 13.3 20 Nordeste 35 Norte 0 994.2 -0.5 72
2019-04-21 21:00:00 13.9 24 Nordeste 42 Nordeste 0 994.4 -0.6 71
2019-04-21 20:00:00 14.8 30 Nordeste 45 Nordeste 0 994.2 -1.4 68
2019-04-21 19:00:00 15.7 31 Nordeste 50 Nordeste 0 994.7 -1.6 66
2019-04-21 18:00:00 16.8 30 Nordeste 42 Nordeste 0 995 -1.7 61
2019-04-21 17:00:00 16.6 28 Nordeste 46 Nordeste 0 995.6 -1.9 63
2019-04-21 16:00:00 16.6 36 Nordeste 50 Nordeste 0 996.3 -1.8 60
2019-04-21 15:00:00 17.4 31 Nordeste 50 Norte 0 996.7 -1.9 55
2019-04-21 14:00:00 16.4 28 Nordeste 48 Nordeste 0 997.5 -1.5 56
2019-04-21 13:00:00 15.4 30 Nordeste 42 Norte 0 998.1 -0.7 59
2019-04-21 12:00:00 14.6 24 Nordeste 42 Nordeste 0 998.6 -0.2 65
2019-04-21 11:00:00 14.9 26 Nordeste 42 Nordeste 0 999 0 70
2019-04-21 10:00:00 13.9 28 Nordeste 41 Nordeste 0 998.8 0.2 71
2019-04-21 09:00:00 13.2 24 Norte 35 Nordeste 0 998.8 -0.6 71
2019-04-21 08:00:00 12.9 22 Nordeste 41 Norte 0 999 -0.7 70
2019-04-21 07:00:00 12.5 25 Norte 35 Nordeste 0 998.6 -1.9 71
2019-04-21 06:00:00 12.3 20 Nordeste 33 Norte 0 999.4 -1.8 73
2019-04-21 05:00:00 12 21 Nordeste 32 Nordeste 0 999.7 -2.3 75
2019-04-21 04:00:00 12 15 Norte 24 Norte 0 1000.5 -2.4 74
2019-04-21 03:00:00 11.6 13 Nordeste 28 Norte 0 1001.2 -2.5 76
2019-04-21 02:00:00 12.7 23 Norte 39 Norte 0 1002 -2.4 68
2019-04-21 01:00:00 12.2 27 Norte 42 Norte 0 1002.9 -1.2 71
2019-04-21 00:00:00 11.6 22 Norte 37 Norte 0 1003.7 -1.1 76
2019-04-20 23:00:00 11.2 23 Norte 41 Norte 0 1004.4 -0.2 80
2019-04-20 22:00:00 11.1 28 Norte 45 Norte 0.6 1004.1 0 86
2019-04-20 21:00:00 12 20 Norte 30 Norte 1.2 1004.8 0.4 86
2019-04-20 20:00:00 12.8 14 Nordeste 30 Nordeste 0.9 1004.6 -0.4 81
2019-04-20 19:00:00 15 26 Nordeste 35 Nordeste 0 1004.1 -1.1 63
2019-04-20 18:00:00 15.1 21 Norte 33 Nordeste 0 1004.4 -1.1 68
2019-04-20 17:00:00 15.8 23 Nordeste 37 Nordeste 0 1005 -1 63
2019-04-20 16:00:00 16.6 23 Nordeste 37 Nordeste 0 1005.2 -1.3 58
2019-04-20 15:00:00 17.4 23 Nordeste 33 Nordeste 0 1005.5 -1.2 50
2019-04-20 14:00:00 18 22 Nordeste 45 Este 0 1006 -1 49
2019-04-20 13:00:00 18.6 24 Nordeste 41 Nordeste 0 1006.5 -0.6 45
2019-04-20 12:00:00 18 27 Nordeste 41 Nordeste 0 1006.7 -0.3 50
2019-04-20 11:00:00 16.5 25 Nordeste 45 Nordeste 0 1007 0.2 59
2019-04-20 10:00:00 16.7 27 Nordeste 39 Nordeste 0 1007.1 0.3 55
2019-04-20 09:00:00 13.9 17 Norte 26 Norte 0 1007 0.1 63
2019-04-20 08:00:00 11.5 17 Norte 26 Norte 0 1006.8 -0.5 66
2019-04-20 07:00:00 10.5 14 Norte 22 Nordeste 0 1006.8 -0.7 67
2019-04-20 06:00:00 11.3 17 Nordeste 24 Norte 0 1006.9 -0.8 62
2019-04-20 05:00:00 11.3 14 Norte 26 Nordeste 0 1007.3 -1.3 62
2019-04-20 04:00:00 12.5 13 Norte 22 Norte 0 1007.5 -1.4 57
2019-04-20 03:00:00 12.7 11 Norte 21 Norte 0 1007.7 -1.4 56
2019-04-20 02:00:00 11.8 8 Nordeste 17 Norte 0 1008.6 -0.8 62
2019-04-20 01:00:00 12.3 9 Nordeste 18 Norte 0 1008.9 -0.2 61
2019-04-20 00:00:00 13.4 9 Norte 21 Norte 0 1009.1 0.5 57
2019-04-19 23:00:00 13.4 11 Norte 26 Norte 0 1009.4 0.8 60
2019-04-19 22:00:00 13.9 17 Norte 28 Nordeste 0 1009.1 0.6 60
2019-04-19 21:00:00 14.6 17 Norte 32 Norte 0 1008.6 0.2 59
2019-04-19 20:00:00 15.8 19 Norte 30 Norte 0 1008.6 0.4 58
2019-04-19 19:00:00 16.9 22 Nordeste 35 Nordeste 0 1008.5 0.5 59
2019-04-19 18:00:00 17.4 27 Nordeste 42 Nordeste 0 1008.4 0.1 59
2019-04-19 17:00:00 19 28 Nordeste 46 Nordeste 0 1008.2 -0.1 51
2019-04-19 16:00:00 19.5 33 Nordeste 48 Nordeste 0 1008 -0.3 42
2019-04-19 15:00:00 19.5 29 Nordeste 41 Este 0 1008.3 0.2 53
2019-04-19 14:00:00 18.8 28 Nordeste 48 Nordeste 0 1008.3 0.4 57
2019-04-19 13:00:00 18.5 28 Nordeste 45 Nordeste 0 1008.3 0.8 56
2019-04-19 12:00:00 17.8 25 Nordeste 37 Nordeste 0 1008.1 1.2 57
2019-04-19 11:00:00 15.8 24 Nordeste 39 Nordeste 0 1007.9 1.6 68
2019-04-19 10:00:00 14.2 19 Nordeste 33 Nordeste 0 1007.5 1.8 74
2019-04-19 09:00:00 13.1 18 Nordeste 28 Nordeste 0 1006.9 1.7 78
2019-04-19 08:00:00 12.1 22 Nordeste 30 Nordeste 0 1006.3 1.5 78
2019-04-19 07:00:00 11.8 18 Nordeste 32 Nordeste 0 1005.7 1.2 74
2019-04-19 06:00:00 12.1 21 Nordeste 28 Nordeste 0 1005.2 0.2 70
2019-04-19 05:00:00 11.9 14 Nordeste 21 Nordeste 0 1004.8 -0.4 74
2019-04-19 04:00:00 12.5 17 Nordeste 26 Nordeste 0 1004.5 -0.8 72
2019-04-19 03:00:00 11.7 11 Norte 17 Norte 0 1005 -0.5 78
2019-04-19 02:00:00 11.5 12 Nordeste 22 Norte 0 1005.2 0.3 79
2019-04-19 01:00:00 12.4 16 Norte 26 Norte 0 1005.3 0.7 73
2019-04-19 00:00:00 11.6 12 Norte 21 Norte 0 1005.5 2.5 76
2019-04-18 23:00:00 12 12 Norte 22 Nordeste 0 1004.9 1.6 79
2019-04-18 22:00:00 12.2 12 Nordeste 30 Norte 0 1004.6 1.4 80
2019-04-18 21:00:00 13 22 Norte 33 Norte 0 1003 0.2 80
2019-04-18 20:00:00 13.9 20 Nordeste 32 Nordeste 0 1003.3 0.8 77
2019-04-18 19:00:00 14.9 18 Nordeste 32 Nordeste 0 1003.2 0.3 74
2019-04-18 18:00:00 16.1 23 Nordeste 37 Norte 0 1002.8 -0.1 72
2019-04-18 17:00:00 16.4 22 Nordeste 32 Nordeste 0 1002.5 -0.4 71
2019-04-18 16:00:00 17.6 14 Este 26 Este 0 1002.9 -0.6 58
2019-04-18 15:00:00 17.1 21 Nordeste 32 Nordeste 0 1002.9 -1.6 63
2019-04-18 14:00:00 16.4 23 Nordeste 35 Nordeste 0 1002.9 -1.3 66
2019-04-18 13:00:00 16.8 22 Nordeste 32 Norte 0 1003.5 -0.5 68
2019-04-18 12:00:00 15.8 14 Nordeste 22 Norte 0 1004.5 1.4 71
2019-04-18 11:00:00 14.3 17 Norte 24 Norte 0 1004.2 1.5 80
2019-04-18 10:00:00 13.2 14 Norte 21 Norte 0 1004 1.4 90
2019-04-18 09:00:00 11.7 13 Norte 18 Norte 0 1003.1 0.3 96
2019-04-18 08:00:00 10.3 8 Norte 13 Norte 0 1002.7 -0.3 98
2019-04-18 07:00:00 9.9 8 Norte 11 Norte 0 1002.6 0.1 98
2019-04-18 06:00:00 9.9 6 Nordeste 8 Nordeste 0 1002.8 0.1 97
2019-04-18 05:00:00 10.4 3 Oeste 9 Norte 0 1003 -0.3 97
2019-04-18 04:00:00 11.4 8 Norte 11 Norte 0 1002.5 -0.9 94
2019-04-18 03:00:00 11.7 0 Calma -- -- 0 1002.7 -0.7 96
2019-04-18 02:00:00 11.1 0 Calma 8 Nordeste 0 1003.3 -0.2 95
2019-04-18 01:00:00 11.6 0 Calma 9 Sudeste 0 1003.4 0.4 92
2019-04-18 00:00:00 12.6 7 Sur 9 Sur 0 1003.4 1.2 91
2019-04-17 23:00:00 12.4 0 Calma 8 Nordeste 0 1003.5 1.8 91
2019-04-17 22:00:00 12.1 3 Sudeste 18 Sur 0 1003 1.7 90
2019-04-17 21:00:00 12.8 16 Sur 26 Sur 0 1002.2 1.1 88
2019-04-17 20:00:00 13.8 16 Sur 28 Sur 0 1001.7 0.5 82
2019-04-17 19:00:00 15.3 22 Sur 33 Sur 0 1001.3 -0.5 76
2019-04-17 18:00:00 16.9 22 Sur 33 Sur 0 1001.1 -1.1 70
2019-04-17 17:00:00 16.2 23 Sur 35 Sur 0 1001.2 -1.6 71
2019-04-17 16:00:00 17 27 Sur 39 Sur 0 1001.8 -1.7 67
2019-04-17 15:00:00 18.6 26 Sur 35 Sur 0 1002.2 -1.4 62
2019-04-17 14:00:00 18.2 24 Sur 35 Sur 0 1002.8 -0.8 64
2019-04-17 13:00:00 17.4 19 Sur 32 Sur 0 1003.5 -0.2 66
2019-04-17 12:00:00 17 17 Sur 28 Sur 0 1003.6 -0.2 68
2019-04-17 11:00:00 14.9 15 Sur 24 Sur 0 1003.6 0.1 78
2019-04-17 10:00:00 13 10 Sur 13 Sur 0 1003.7 0.5 91
2019-04-17 09:00:00 7.6 0 Calma 9 Oeste 0 1003.8 0.6 100
2019-04-17 08:00:00 6.1 0 Calma 8 Oeste 0 1003.5 0 99
2019-04-17 07:00:00 7.1 3 Oeste 5 Oeste 0 1003.2 -0.7 99
2019-04-17 06:00:00 7.6 3 Este 8 Este 0 1003.2 -1.1 99
2019-04-17 05:00:00 7.4 3 Nordeste 5 Este 0 1003.5 -1.3 99
2019-04-17 04:00:00 8.3 0 Calma 8 Oeste 0 1003.9 -1.1 98
2019-04-17 03:00:00 8.8 3 Oeste 5 Oeste 0 1004.3 -0.9 96
2019-04-17 02:00:00 9.7 5 Sudeste 8 Sudeste 0 1004.8 -0.5 93
2019-04-17 01:00:00 11 0 Calma 5 Este 0 1005 -0.1 88
2019-04-17 00:00:00 12.2 4 Sudoeste 8 Oeste 0 1005.2 0.2 91
2019-04-16 23:00:00 12.8 0 Calma 5 Oeste 0 1005.3 0.8 88
2019-04-16 22:00:00 12.9 4 Oeste 9 Sudoeste 0 1005.1 1.1 87
2019-04-16 21:00:00 13.5 7 Sudoeste 11 Sudoeste 0 1005 1.2 83
2019-04-16 20:00:00 14.2 9 Este 13 Este 0 1004.5 0.8 79
2019-04-16 19:00:00 15.1 8 Este 17 Este 0 1004 0.2 75
2019-04-16 18:00:00 15.4 12 Este 24 Sudeste 0 1003.8 -0.4 75
2019-04-16 17:00:00 16 14 Este 26 Este 0 1003.7 -0.6 73
2019-04-16 16:00:00 18.2 8 Este 21 Sur 0 1003.8 -0.6 62
2019-04-16 15:00:00 17.3 14 Sur 26 Sur 0 1004.2 -0.2 67
2019-04-16 14:00:00 16.7 10 Sudeste 17 Este 0 1004.3 0.5 67
2019-04-16 13:00:00 15.2 11 Nordeste 18 Este 0 1004.4 0.9 72
2019-04-16 12:00:00 15.6 4 Este 13 Nordeste 0 1004.4 1.4 70
2019-04-16 11:00:00 14.9 2 Este 8 Este 0 1003.8 1.2 71
2019-04-16 10:00:00 12 3 Este 8 Nordeste 0 1003.5 1.6 86
2019-04-16 09:00:00 10.3 5 Nordeste 8 Nordeste 0 1003 1.3 92
2019-04-16 08:00:00 9 4 Norte 8 Nordeste 0 1002.6 0.9 94
2019-04-16 07:00:00 8.8 5 Nordeste 11 Nordeste 0 1001.9 0.4 94
2019-04-16 06:00:00 8.6 3 Noroeste 13 Noroeste 0 1001.7 0.2 90
2019-04-16 05:00:00 8 6 Noroeste 15 Norte 0 1001.7 -0.6 92
2019-04-16 04:00:00 8 8 Noroeste 11 Norte 0 1001.5 0.1 92
2019-04-16 03:00:00 8.8 9 Norte 13 Norte 0.4 1001.5 0.6 93
2019-04-16 02:00:00 9.4 5 Nordeste 17 Norte 0.3 1002.3 1.4 84
2019-04-16 01:00:00 9.2 0 Calma 8 Sudoeste 0 1001.4 0.3 78
2019-04-16 00:00:00 9.5 2 Sur 11 Sudoeste 0 1000.9 0.2 75
2019-04-15 23:00:00 10.2 8 Sudoeste 13 Sudoeste 0 1000.9 0.6 72
2019-04-15 22:00:00 10.7 9 Sur 21 Sur 0 1001.1 0.7 70
2019-04-15 21:00:00 11.2 15 Sur 24 Sur 0 1000.7 0.5 61
2019-04-15 20:00:00 12.5 16 Sur 26 Sur 0 1000.3 -0.1 53
2019-04-15 19:00:00 13.3 19 Sur 30 Sur 0 1000.4 -0.2 47
2019-04-15 18:00:00 14.3 21 Sur 33 Sur 0 1000.2 -0.8 48
2019-04-15 17:00:00 14.6 23 Sur 35 Sur 0 1000.4 -1.1 51
2019-04-15 16:00:00 15.3 26 Sur 35 Sur 0 1000.6 -1.1 57
2019-04-15 15:00:00 16.7 20 Sur 32 Sur 0 1001 -- 55
2019-04-15 14:00:00 17.7 19 Sur 32 Sur 0 1001.5 -1.2 52
2019-04-15 13:00:00 16.8 10 Sudoeste 18 Sur 0 1001.7 -1.1 53
2019-04-15 12:00:00 15.4 5 Sudoeste -- -- -- -- -- 53
2019-04-15 11:00:00 14.1 5 Este 13 Este 0 1002.7 0.3 57
2019-04-15 10:00:00 12.6 5 Este 11 Este 0 1002.8 1.4 61
2019-04-15 09:00:00 10.2 4 Sur 13 Norte 0 1002.6 1 74
2019-04-15 08:00:00 7.7 8 Noroeste 13 Norte 0 1002.4 0.7 77
2019-04-15 07:00:00 7.5 9 Norte 11 Norte 0 1001.4 -0.4 75
2019-04-15 06:00:00 7.4 9 Norte 13 Norte 0 1001.6 -0.3 78
2019-04-15 05:00:00 8 11 Norte 15 Norte 0 1001.7 -0.5 76
2019-04-15 04:00:00 7.8 10 Norte 15 Norte 0 1001.8 -0.4 78
2019-04-15 03:00:00 6 9 Norte 11 Nordeste 0 1001.9 0.1 87
2019-04-15 02:00:00 7.1 3 Este 9 Noroeste 0 1002.2 1.1 84
2019-04-15 01:00:00 7.9 9 Oeste 11 Oeste 0 1002.2 1.8 84
2019-04-15 00:00:00 8.9 0 Calma 11 Norte 0 1001.8 2.4 80
2019-04-14 23:00:00 9.7 0 Calma 11 Norte 0 1001.1 2 78
2019-04-14 22:00:00 10.6 7 Nordeste 13 Sur 0 1000.4 1.8 76
2019-04-14 21:00:00 12.2 11 Sudoeste 17 Sur 0 999.4 1.4 69
2019-04-14 20:00:00 13.9 11 Sur 21 Sudoeste 0 999.1 1.2 61
2019-04-14 19:00:00 16 19 Sur 26 Sur 0 998.6 0.2 45
2019-04-14 18:00:00 17.1 16 Sur 28 Sudoeste 0 998 -0.7 49
2019-04-14 17:00:00 18.2 19 Sur 30 Sudoeste 0 997.9 -0.5 48
2019-04-14 16:00:00 17.9 16 Sudeste 28 Sur 0 998.4 -0.3 54
2019-04-14 15:00:00 17.8 11 Sudeste 26 Sur 0 998.7 -0.3 54
2019-04-14 14:00:00 18.5 5 Este 17 Sudeste 0 998.4 -0.6 49
2019-04-14 13:00:00 17.4 6 Este 15 Sur 0 998.7 -0.1 53
2019-04-14 12:00:00 16.2 5 Este 15 Sudeste 0 999 0.1 57
2019-04-14 11:00:00 13.9 8 Este 13 Este 0 999 0.1 69
2019-04-14 10:00:00 11.8 10 Nordeste 15 Norte 0 998.8 0.5 75
2019-04-14 09:00:00 9.4 3 Sudoeste 11 Oeste 0 998.9 0.4 84
2019-04-14 08:00:00 5.3 9 Nordeste 11 Nordeste 0 998.9 0.3 94
2019-04-14 07:00:00 4.5 2 Noroeste 9 Noroeste 0 998.3 -0.7 92
2019-04-14 06:00:00 5.4 5 Nordeste 9 Nordeste 0 998.5 -0.8 96
2019-04-14 05:00:00 5.7 2 Nordeste 9 Nordeste 0 998.6 -1.3 96
2019-04-14 04:00:00 6.2 4 Sudoeste 8 Sudoeste 0 999 -1.4 96
2019-04-14 03:00:00 5.2 8 Norte 11 Norte 0 999.3 -1.1 95
2019-04-14 02:00:00 6.3 5 Nordeste 8 Nordeste 0 999.9 -0.4 94
2019-04-14 01:00:00 8 0 Calma 5 Sudeste 0 1000.4 0.2 92
2019-04-14 00:00:00 8.8 0 Calma 5 Nordeste 0 1000.4 0.6 90
2019-04-13 23:00:00 9.8 2 Norte 5 Norte 0 1000.3 0.8 88
2019-04-13 22:00:00 11.3 0 Calma 9 Sudeste 0 1000.2 0.8 86
2019-04-13 21:00:00 12.7 6 Sur 21 Sur 0 999.8 0.6 82
2019-04-13 20:00:00 14.3 15 Sur 22 Sur 0 999.5 0.5 76
2019-04-13 19:00:00 16.6 18 Sur 28 Sur 0 999.4 0.1 65
2019-04-13 18:00:00 18.2 19 Sudoeste 30 Sur 0 999.2 -0.6 59
2019-04-13 17:00:00 19.2 19 Sur 30 Sur 0 999 -1.1 58
2019-04-13 16:00:00 20.2 18 Sur 26 Sur 0 999.3 -1.4 50
2019-04-13 15:00:00 20.2 17 Sur 26 Sur 0 999.8 -1.4 44
2019-04-13 14:00:00 20 8 Sur 18 Sudoeste 0 1000.1 -1.4 38
2019-04-13 13:00:00 18.9 10 Sur 18 Sur 0 1000.7 -0.7 44
2019-04-13 12:00:00 17.4 8 Sudoeste 15 Sudoeste 0 1001.2 0.1 49
2019-04-13 11:00:00 15.4 4 Sur 9 Sudoeste 0 1001.5 0.8 59
2019-04-13 10:00:00 12.1 0 Calma 8 Sur 0 1001.4 1.2 75
2019-04-13 09:00:00 8.5 3 Este 8 Nordeste 0 1001.1 1.1 89
2019-04-13 08:00:00 3.9 0 Calma 13 Este 0 1000.7 0.6 96
2019-04-13 07:00:00 3 4 Sudeste 9 Norte 0 1000.2 -0.1 96
2019-04-13 06:00:00 3.4 4 Nordeste 9 Nordeste 0 1000 -0.5 96
2019-04-13 05:00:00 4 0 Calma 11 Nordeste 0 1000.1 -0.7 97
2019-04-13 04:00:00 4 4 Este 8 Sur 0 1000.3 -0.7 95
2019-04-13 03:00:00 4.8 4 Oeste 8 Noroeste 0 1000.5 -0.6 94
2019-04-13 02:00:00 5.7 4 Oeste 8 Oeste 0 1000.8 -0.2 94
2019-04-13 01:00:00 6.6 3 Noroeste 13 Norte 0 1001 0.5 92
2019-04-13 00:00:00 7.4 6 Noroeste 13 Oeste 0 1001.1 1.5 93
2019-04-12 23:00:00 8.8 3 Nordeste 11 Sudeste 0 1001 2.1 86
2019-04-12 22:00:00 10.1 8 Sur 18 Sur 0 1000.5 2 82
2019-04-12 21:00:00 11.1 13 Sur 24 Sur 0 999.6 1.4 81
2019-04-12 20:00:00 12.5 15 Sur 32 Sudoeste 0 998.9 1.1 75
2019-04-12 19:00:00 14.8 23 Sudoeste 41 Sur 0 998.5 0.3 63
2019-04-12 18:00:00 16.6 29 Sur 39 Sur 0 998.2 0.1 57
2019-04-12 17:00:00 17.6 23 Sur 37 Sur 0 997.8 -0.3 54
2019-04-12 16:00:00 18.1 24 Sur 35 Sur 0 998.2 0 53
2019-04-12 15:00:00 18.8 21 Sudoeste 32 Sudoeste 0 998.1 -0.4 52
2019-04-12 14:00:00 18.8 15 Sur 28 Sur 0 998.1 -0.6 48
2019-04-12 13:00:00 18.3 10 Sur 22 Sur 0 998.2 -0.2 49
2019-04-12 12:00:00 17 10 Sur 21 Sur 0 998.5 0.2 50
2019-04-12 11:00:00 15 6 Sudeste 13 Sudeste 0 998.7 0.6 57
2019-04-12 10:00:00 10.2 4 Sudoeste 8 Sur 0 998.4 0.6 80
2019-04-12 09:00:00 8.1 0 Calma 8 Nordeste 0 998.3 0.9 88
2019-04-12 08:00:00 7.9 0 Calma 9 Oeste 0 998.1 0.6 86
2019-04-12 07:00:00 7.5 8 Oeste 11 Oeste 0 997.8 0.2 87
2019-04-12 06:00:00 8.2 2 Noroeste 13 Oeste 0 997.4 -0.3 83
2019-04-12 05:00:00 8.8 4 Oeste 11 Oeste 0 997.5 -0.5 82
2019-04-12 04:00:00 7.7 6 Nordeste 15 Sudoeste 0 997.6 -0.3 86
2019-04-12 03:00:00 9.1 8 Norte 11 Norte 0 997.7 -0.3 86
2019-04-12 02:00:00 10.4 6 Oeste 9 Oeste 0 998 0.1 84
2019-04-12 01:00:00 10.6 4 Sudoeste 9 Oeste 0 997.9 0.1 86
2019-04-12 00:00:00 10.7 0 Calma 17 Oeste 0 998 0.6 87
2019-04-11 23:00:00 10.8 5 Nordeste 11 Nordeste 0 997.9 1 86
2019-04-11 22:00:00 11.3 3 Norte 13 Nordeste 0 997.8 0.9 83
2019-04-11 21:00:00 12 3 Nordeste 13 Oeste 0 997.4 1 77
2019-04-11 20:00:00 12.8 7 Sudoeste 11 Oeste 0 996.9 0.6 74
2019-04-11 19:00:00 13.6 9 Sudoeste 17 Sudoeste 0 996.9 0.6 67
2019-04-11 18:00:00 14 9 Sudoeste 17 Sur 0 996.4 0.2 63
2019-04-11 17:00:00 14 10 Sudoeste 17 Sudoeste 0 996.3 0.2 62
2019-04-11 16:00:00 16.1 3 Este 17 Este 0 996.3 0 48
2019-04-11 15:00:00 16.3 7 Sudeste 13 Sur 0 996.2 -0.4 44
2019-04-11 14:00:00 16.5 11 Sur 15 Sur 0.2 996.1 -0.3 43
2019-04-11 13:00:00 17 10 Sur 17 Sudoeste 0 996.3 0.1 42
2019-04-11 12:00:00 15.3 6 Sudoeste 24 Nordeste 0.1 996.6 0.5 46
2019-04-11 11:00:00 16.2 3 Oeste 11 Oeste 0 996.4 0.6 47
2019-04-11 10:00:00 14.1 3 Sudoeste 13 Nordeste 0 996.2 0.9 62
2019-04-11 09:00:00 11.2 6 Nordeste 11 Nordeste 0 996.1 0.6 77
2019-04-11 08:00:00 7.4 3 Nordeste -- -- 0 995.8 0.4 94
2019-04-11 07:00:00 7 5 Sudeste 8 Sudeste 0 995.3 0 92
2019-04-11 06:00:00 7.1 5 Sudoeste 11 Sudoeste 0 995.5 0.1 92
2019-04-11 05:00:00 7.9 2 Nordeste 9 Oeste 0 995.4 -0.4 91
2019-04-11 04:00:00 8.4 0 Calma 9 Este 0 995.3 -0.5 90
2019-04-11 03:00:00 8.6 0 Calma 9 Sur 0 995.4 -0.5 89
2019-04-11 02:00:00 9.1 0 Calma 8 Este 0 995.8 -0.3 87
2019-04-11 01:00:00 9.4 2 Oeste 13 Oeste 0 995.8 0 85
2019-04-11 00:00:00 10.6 8 Oeste 11 Oeste 0 995.9 0.9 84
2019-04-10 23:00:00 11 6 Nordeste 11 Este 0 996.1 1.8 84
2019-04-10 22:00:00 12.2 4 Noroeste 18 Oeste 0 995.8 2.3 72
2019-04-10 21:00:00 11.9 8 Oeste 17 Noroeste 0 995 1.8 74
2019-04-10 20:00:00 12.7 8 Sur 22 Sudoeste 0 994.3 1.1 70
2019-04-10 19:00:00 14 14 Sudoeste 24 Sur 0 993.5 0.1 66
2019-04-10 18:00:00 15.1 17 Sudoeste 26 Sudoeste 0 993.2 0.1 64
2019-04-10 17:00:00 14.9 14 Sudoeste 30 Sudoeste 0.3 993.2 0.3 64
2019-04-10 16:00:00 15.5 17 Sudoeste 28 Sudoeste 0 993.4 0.2 58
2019-04-10 15:00:00 18.1 10 Sudoeste 28 Oeste 0 993.1 0 44
2019-04-10 14:00:00 17.9 0 Calma -- -- -- 992.9 -0.2 38
2019-04-10 13:00:00 16.5 9 Oeste 15 Oeste 0 993.2 0.3 56
2019-04-10 12:00:00 17 6 Sudeste 11 Sudeste 0 993.1 0.4 59
2019-04-10 11:00:00 13.9 6 Sur 9 Sur 0 993.1 0.7 74
2019-04-10 10:00:00 11.3 3 Sudeste 8 Sur 0 992.9 0.9 83
2019-04-10 09:00:00 7.4 5 Sur 8 Sur 0 992.7 0.7 95
2019-04-10 08:00:00 4 0 Calma 5 Nordeste 0 992.4 0.4 98
2019-04-10 07:00:00 4.4 3 Sur 8 Nordeste 0 992 -0.1 97
2019-04-10 06:00:00 4.8 0 Calma 9 Oeste 0 992 -0.5 96
2019-04-10 05:00:00 5.5 5 Oeste 8 Oeste 0 992 -0.8 97
2019-04-10 04:00:00 6.3 3 Noroeste 13 Noroeste 0 992.1 -0.7 94
2019-04-10 03:00:00 6.7 6 Oeste 9 Noroeste 0 992.5 -0.4 96
2019-04-10 02:00:00 7.7 3 Oeste 8 Oeste 0 992.8 -0.4 97
2019-04-10 01:00:00 7.8 4 Sudoeste 9 Sudoeste 0 992.8 -0.5 96
2019-04-10 00:00:00 8.8 3 Este 11 Oeste 0 992.9 -0.2 94
2019-04-09 23:00:00 8.7 6 Oeste 15 Noroeste 0 993.2 0.4 94
2019-04-09 22:00:00 8.7 3 Sudoeste 9 Sudoeste 0 993.3 0.1 95
2019-04-09 21:00:00 9.1 0 Calma 9 Este 0 993.1 -0.5 93
2019-04-09 20:00:00 9.2 6 Norte 26 Oeste 0.1 992.8 -0.5 91
2019-04-09 19:00:00 9.1 22 Oeste 32 Oeste 2.1 993.2 0.1 90
2019-04-09 18:00:00 9.9 19 Oeste 33 Oeste 0.7 993.6 0.4 83
2019-04-09 17:00:00 11.3 12 Oeste 26 Sudoeste 0.4 993.3 0 84
2019-04-09 16:00:00 13.2 14 Oeste 28 Sudoeste 0 993.1 -0.8 76
2019-04-09 15:00:00 15.2 27 Sudoeste 33 Sudoeste 0 993.2 -0.9 74
2019-04-09 14:00:00 15.6 3 Sur 17 Nordeste 0 993.3 -- 64
2019-04-09 13:00:00 14.7 6 Este 13 Sudeste 0 993.9 -0.1 69
2019-04-09 12:00:00 12.9 6 Nordeste -- -- -- 994.1 0.3 79
2019-04-09 11:00:00 -- -- -- -- -- -- -- -- --
2019-04-09 10:00:00 11.2 4 Noroeste 8 Oeste 0 994 0.6 92
2019-04-09 09:00:00 9.4 6 Este 15 Sur 0 993.8 0.5 97
2019-04-09 08:00:00 9.1 3 Oeste 11 Sudeste 0 993.6 0 97
2019-04-09 07:00:00 8.9 5 Norte 8 Norte 0 993.4 -0.6 97
2019-04-09 06:00:00 7.8 0 Calma 5 Norte 0 993.3 -1.4 97
2019-04-09 05:00:00 8.3 0 Calma 8 Noroeste 0 993.6 -1.3 95
2019-04-09 04:00:00 9.4 7 Norte 9 Noroeste 0 994 -1.3 94
2019-04-09 03:00:00 10.1 0 Calma 11 Norte 0 994.7 -0.4 93
2019-04-09 02:00:00 10.3 4 Norte 13 Noroeste 0 994.9 -0.8 93
2019-04-09 01:00:00 10.8 3 Noroeste 26 Nordeste 0 995.3 0 92
2019-04-09 00:00:00 11.5 16 Nordeste 24 Nordeste 0.8 995.1 0.1 92
2019-04-08 23:00:00 12.5 8 Norte 13 Norte 0 995.7 1.3 85
2019-04-08 22:00:00 12.4 6 Sudoeste 15 Sur 0 995.3 1.4 83
2019-04-08 21:00:00 13.3 0 Calma 18 Sur 0 995 1.4 80
2019-04-08 20:00:00 14.1 14 Sur 21 Sur 0 994.4 1 74
2019-04-08 19:00:00 17 14 Sur 24 Sur 0 993.9 0.5 57
2019-04-08 18:00:00 18.4 12 Sudeste 22 Este 0 993.6 -0.2 50
2019-04-08 17:00:00 20.4 10 Sudoeste 26 Sur 0 993.4 -0.5 46
2019-04-08 16:00:00 20.3 9 Sudoeste 26 Sur 0 993.4 -1 38
2019-04-08 15:00:00 19.9 6 Sudoeste 21 Sudoeste 0 993.8 -1.1 40
2019-04-08 14:00:00 19.1 8 Sudoeste 15 Sudoeste 0 993.9 -1.3 40
2019-04-08 13:00:00 17.6 8 Sur 15 Sur 0 994.4 -0.9 45
2019-04-08 12:00:00 15.1 8 Sur 13 Sudeste 0 994.9 -0.6 55
2019-04-08 11:00:00 13.7 2 Sudeste 9 Sudeste 0 995.2 -0.2 63
2019-04-08 10:00:00 9.8 7 Sur 13 Sur 0 995.3 -0.2 87
2019-04-08 09:00:00 5.4 4 Sudoeste 9 Oeste 0 995.5 0 96
2019-04-08 08:00:00 3.2 4 Oeste 9 Oeste 0 995.4 -0.6 97
2019-04-08 07:00:00 2.8 4 Oeste 8 Oeste 0 995.5 -0.6 96
2019-04-08 06:00:00 3.5 4 Oeste 9 Oeste 0 995.5 -1 97
2019-04-08 05:00:00 3.4 0 Calma 9 Oeste 0 996 -0.9 96
2019-04-08 04:00:00 3.6 3 Sudoeste 8 Sudoeste 0 996.1 -0.9 96
2019-04-08 03:00:00 4.5 3 Oeste 8 Oeste 0 996.5 -0.6 96
2019-04-08 02:00:00 5.2 3 Este 11 Oeste 0 996.9 0.1 95
2019-04-08 01:00:00 5.6 7 Oeste 17 Sudoeste 0 997 0.3 96
2019-04-08 00:00:00 6 6 Oeste 11 Sur 0 997.1 1.3 95
2019-04-07 23:00:00 6.4 0 Calma 9 Nordeste 0 996.8 1.7 92
2019-04-07 22:00:00 8 0 Calma 11 Norte 0 996.7 2.4 93
2019-04-07 21:00:00 9.5 6 Sudoeste 13 Sur 0 995.8 1.8 88
2019-04-07 20:00:00 10.9 6 Sur 13 Sudoeste 0 995.1 1.5 81
2019-04-07 19:00:00 12.4 9 Sudoeste 17 Sudoeste 0 994.3 2 73
2019-04-07 18:00:00 10.1 12 Sudoeste 21 Sudoeste 0 994 2.9 81
2019-04-07 17:00:00 9.4 6 Sudoeste 28 Sudoeste 0 993.6 3 81
2019-04-07 16:00:00 13.9 13 Este 41 Nordeste 0 992.3 2 57
2019-04-07 15:00:00 15.7 23 Este 50 Nordeste 0 991.1 1.1 52
2019-04-07 14:00:00 17 31 Nordeste 48 Este 0 990.6 1 45
2019-04-07 13:00:00 16.1 28 Nordeste 42 Este 0 990.3 1.4 50
2019-04-07 12:00:00 15.2 24 Nordeste 39 Este 0 990 1.7 54
2019-04-07 11:00:00 13.3 20 Nordeste 32 Norte 0 989.6 1.9 61
2019-04-07 10:00:00 10.1 11 Nordeste 17 Nordeste 0 988.9 2.2 75
2019-04-07 09:00:00 7.7 8 Nordeste 15 Norte 0 988.3 2 83
2019-04-07 08:00:00 5.2 10 Norte 17 Norte 0 987.7 1.6 87
2019-04-07 07:00:00 2.6 5 Norte 11 Nordeste 0 986.7 0.5 95
2019-04-07 06:00:00 2.8 4 Este 9 Sudoeste 0 986.3 -0.1 94
2019-04-07 05:00:00 4.1 3 Sudoeste 9 Oeste 0 986.1 -0.7 90
2019-04-07 04:00:00 4.2 0 Calma 9 Nordeste 0 986.2 -1.1 92
2019-04-07 03:00:00 4.8 5 Este 11 Nordeste 0 986.4 -1.1 87
2019-04-07 02:00:00 5.4 9 Oeste 11 Oeste 0 986.8 -0.5 89
2019-04-07 01:00:00 6.2 3 Nordeste 9 Nordeste 0 987.3 -0.1 88
2019-04-07 00:00:00 7.6 4 Noroeste 11 Sudoeste 0 987.5 0.5 85
2019-04-06 23:00:00 8.8 5 Noroeste 17 Sur 0 987.3 0.8 82
2019-04-06 22:00:00 9.3 9 Sudoeste 22 Sudoeste 0 987.4 1.6 79
2019-04-06 21:00:00 10.9 18 Sudoeste 39 Sudoeste 0 987 1.8 66
2019-04-06 20:00:00 11.9 24 Sudoeste 42 Sur 0 986.5 1.5 63
2019-04-06 19:00:00 15.9 17 Oeste 33 Oeste 0 985.8 1.1 35
2019-04-06 18:00:00 16.5 19 Oeste 37 Oeste 0 985.2 0.3 35
2019-04-06 17:00:00 16.8 22 Oeste 45 Sudoeste 0 985 0.2 37
2019-04-06 16:00:00 15 22 Oeste 39 Oeste 0 984.7 0.2 41
2019-04-06 15:00:00 15.3 20 Oeste 39 Oeste 0 984.9 0.6 45
2019-04-06 14:00:00 15.9 15 Oeste 37 Sudoeste 0 984.8 0.9 46
2019-04-06 13:00:00 14.2 16 Noroeste 45 Oeste 0 984.5 1.1 52
2019-04-06 12:00:00 14 21 Oeste 35 Oeste 0 984.3 1.5 55
2019-04-06 11:00:00 13.4 9 Oeste 28 Oeste 0 983.9 1.8 64
2019-04-06 10:00:00 11.8 4 Este 13 Este 0 983.4 1.6 72
2019-04-06 09:00:00 10.2 0 Calma 13 Este 0 982.8 1.7 91
2019-04-06 08:00:00 7.5 4 Oeste 11 Sur 0 982.1 0.5 96
2019-04-06 07:00:00 8.4 3 Sur 15 Sur 0.1 981.8 0.7 95
2019-04-06 06:00:00 9 7 Oeste 24 Sudoeste 0 981.1 -0.5 95
2019-04-06 05:00:00 9 15 Sudoeste 30 Sur 0 981.6 -0.4 95
2019-04-06 04:00:00 9.1 21 Sudoeste 32 Sudoeste 0 981.1 -1.3 95
2019-04-06 03:00:00 10.9 15 Sur 28 Sur 0.3 981.6 -1.6 96
2019-04-06 02:00:00 11.8 17 Sudoeste 32 Sur 0.3 982 -2.1 95
2019-04-06 01:00:00 11.5 11 Sur 22 Sudeste 0.6 982.4 -2 97
2019-04-06 00:00:00 11.1 8 Sur 24 Sur 0.8 983.2 -1.2 94
2019-04-05 23:00:00 11.4 8 Sudoeste 21 Sur 0.4 984.1 -0.5 93
2019-04-05 22:00:00 11.9 10 Sur 15 Sur 0 984.4 -0.1 88
2019-04-05 21:00:00 11.6 14 Sur 26 Sur 0 984.4 0.1 79
2019-04-05 20:00:00 12.1 19 Sur 35 Sur 0 984.6 0.2 78
2019-04-05 19:00:00 13 26 Sur 42 Sur 0 984.5 -0.3 84
2019-04-05 18:00:00 13.7 29 Sur 41 Sur 0 984.3 -1.1 81
2019-04-05 17:00:00 12.7 13 Sudoeste 24 Sudoeste 0.8 984.4 -1.1 93
2019-04-05 16:00:00 11.3 22 Sudoeste 41 Sur 1.1 984.8 -1.2 90
2019-04-05 15:00:00 13.5 30 Sur 41 Sur 0.1 985.4 -0.6 82
2019-04-05 14:00:00 15.1 24 Sur 41 Sur 0 985.5 -0.5 69
2019-04-05 13:00:00 14.6 30 Sur 42 Sur 0 986 0 68
2019-04-05 12:00:00 14.1 35 Sudoeste 50 Sudoeste 0 986 -0.2 65
2019-04-05 11:00:00 14.7 27 Sudoeste 39 Sudoeste 0 986 -0.2 64
2019-04-05 10:00:00 11.2 7 Sudoeste 13 Sudoeste 0 986 -0.3 69
2019-04-05 09:00:00 6.2 0 Calma 13 Sudoeste 0 986.2 -0.1 85
2019-04-05 08:00:00 1.4 7 Sudoeste 13 Sudoeste 0 986.2 -0.7 97
2019-04-05 07:00:00 0.5 0 Calma 8 Nordeste 0 986.3 -0.8 96
2019-04-05 06:00:00 0.8 3 Sur 11 Oeste 0 986.3 -0.9 95
2019-04-05 05:00:00 0.8 6 Oeste 13 Oeste 0 986.9 -0.4 95
2019-04-05 04:00:00 1.6 4 Sudoeste 9 Sur 0 987.1 -0.7 95
2019-04-05 03:00:00 2.1 2 Norte 9 Oeste 0 987.2 -1 94
2019-04-05 02:00:00 2.6 6 Oeste 9 Este 0 987.3 -1.4 93
2019-04-05 01:00:00 2.9 0 Calma 9 Noroeste 0 987.8 -0.6 90
2019-04-05 00:00:00 4.3 0 Calma -- -- 0 988.2 0.3 86
2019-04-04 23:00:00 5.1 5 Oeste 8 Oeste 0 988.7 1 83
2019-04-04 22:00:00 6.7 5 Sudeste 11 Sur 0 988.4 0.9 74
2019-04-04 21:00:00 7.2 7 Sur 17 Sur 0 987.9 0.6 74
2019-04-04 20:00:00 9.2 15 Sur 30 Sur 0 987.7 0.4 65
2019-04-04 19:00:00 11 23 Sur 33 Sur 0 987.5 0.5 58
2019-04-04 18:00:00 12.3 24 Sur 32 Sur 0 987.3 0.4 61
2019-04-04 17:00:00 12.8 22 Sur 39 Sur 0 987.3 0.2 59
2019-04-04 16:00:00 13.5 15 Sudeste 24 Sur 0 987 -0.4 55
2019-04-04 15:00:00 12.7 13 Sur 24 Sur 0 986.9 -0.6 56
2019-04-04 14:00:00 13.7 10 Sudeste 18 Sudeste 0 987.1 -0.1 48
2019-04-04 13:00:00 12.5 9 Sudeste 17 Sur 0 987.4 0.4 50
2019-04-04 12:00:00 11.1 9 Nordeste -- -- -- 987.5 0.9 60
2019-04-04 11:00:00 9.7 7 Nordeste 18 Nordeste 0 987.2 1.1 67
2019-04-04 10:00:00 8.4 4 Norte 11 Noroeste 0 987 1.4 75
2019-04-04 09:00:00 4.7 0 Calma 15 Este 0 986.6 1.1 97
2019-04-04 08:00:00 2.5 4 Noroeste 9 Norte 0 986.1 0.5 99
2019-04-04 07:00:00 3 4 Oeste 13 Norte 0 985.6 -0.3 99
2019-04-04 06:00:00 2.4 4 Nordeste 8 Nordeste 0 985.5 -0.8 98
2019-04-04 05:00:00 3.9 -- -- -- -- 0 985.6 -1.2 97
2019-04-04 04:00:00 4.7 4 Sudoeste 8 Sudoeste 0 985.9 -1.1 96
2019-04-04 03:00:00 5.6 6 Sudoeste 9 Nordeste 0 986.3 -1.7 96
2019-04-04 02:00:00 5.8 0 Calma 15 Oeste 0 986.8 -0.8 94
2019-04-04 01:00:00 5.7 4 Noroeste 9 Noroeste 0 987 0.2 95
2019-04-04 00:00:00 5.8 0 Calma 18 Nordeste 0.2 988 0.8 93
2019-04-03 23:00:00 5.8 15 Nordeste 30 Nordeste 1.3 987.6 1.2 95
2019-04-03 22:00:00 6.1 24 Nordeste 33 Nordeste 3.3 986.8 0 96
2019-04-03 21:00:00 6.4 20 Nordeste 39 Nordeste 1.4 987.2 0.7 95
2019-04-03 20:00:00 7.3 23 Nordeste 35 Nordeste 0.8 986.4 -0.3 93
2019-04-03 19:00:00 8.6 16 Nordeste 35 Nordeste 1.5 986.8 -0.1 96
2019-04-03 18:00:00 9.5 24 Nordeste 37 Nordeste 0.9 986.5 -0.5 95
2019-04-03 17:00:00 10.8 26 Norte 33 Nordeste 0 986.7 -0.5 93
2019-04-03 16:00:00 13.2 9 Nordeste 22 Nordeste 0 986.9 -1.3 86
2019-04-03 15:00:00 11.7 10 Sudoeste 46 Oeste 6.2 987 -2.3 87
2019-04-03 14:00:00 17.1 26 Sur 41 Sur 0 987.2 -2.7 73
2019-04-03 13:00:00 17 29 Sur 39 Sur 0 988.2 -2.2 73
2019-04-03 12:00:00 16.4 28 Sur 41 Sudoeste 0 989.3 -1.7 75
2019-04-03 11:00:00 15 24 Sudoeste 33 Sudoeste 0 989.9 -1.7 85
2019-04-03 10:00:00 12.4 19 Sur 26 Sur 0 990.4 -1.6 96
2019-04-03 09:00:00 8.8 4 Este 9 Oeste 0.2 991 -1.6 99
2019-04-03 08:00:00 8 3 Sur 9 Sur 0 991.6 -1.9 99
2019-04-03 07:00:00 7.5 4 Sudoeste 8 Sudoeste 0 992 -2.6 99
2019-04-03 06:00:00 7.5 0 Calma 8 Sudoeste 0 992.6 -2.9 99
2019-04-03 05:00:00 7.6 0 Calma 8 Sudoeste 0 993.5 -2.8 99
2019-04-03 04:00:00 7.5 7 Sudoeste 8 Sudoeste 0 994.6 -2.5 98
2019-04-03 03:00:00 8.7 0 Calma 8 Sudoeste 0 995.5 -1.9 98
2019-04-03 02:00:00 9.8 2 Oeste 8 Oeste 0 996.3 -1.4 98
2019-04-03 01:00:00 9.9 6 Sudoeste 11 Sur 0 997.1 -0.6 98
2019-04-03 00:00:00 10.2 9 Sudoeste 22 Noroeste 2.6 997.4 -0.6 96
2019-04-02 23:00:00 10.2 10 Noroeste 21 Noroeste 0 997.7 -0.1 96
2019-04-02 22:00:00 10.4 4 Oeste 13 Norte 1 997.7 -0.2 96
2019-04-02 21:00:00 11.1 7 Oeste 11 Oeste 3 998 1.2 97
2019-04-02 20:00:00 11.4 8 Nordeste 17 Nordeste 8.9 997.8 1.4 97
2019-04-02 19:00:00 13.2 11 Norte 24 Nordeste 0 997.9 1.1 79
2019-04-02 18:00:00 15.6 14 Sur 26 Sur 0 996.8 -- 73
2019-04-02 17:00:00 18.2 18 Sur 28 Sur 0 996.4 -1.2 61
2019-04-02 16:00:00 17.7 15 Sudeste 24 Sur 0 996.8 -1.4 62
2019-04-02 15:00:00 -- -- -- -- -- -- -- -- --
2019-04-02 14:00:00 19.2 14 Sur 24 Sur 0 997.6 -1.3 50
2019-04-02 13:00:00 19.4 6 Este 18 Este 0 998.2 -0.5 47
2019-04-02 12:00:00 18.2 6 Nordeste 13 Nordeste 0 998.7 0.1 46
2019-04-02 11:00:00 16.1 5 Este 13 Este 0 998.9 0.6 59
2019-04-02 10:00:00 11.1 2 Norte 9 Sur 0 998.7 0.8 75
2019-04-02 09:00:00 7.8 4 Norte 5 Norte 0 998.6 0.6 93
2019-04-02 08:00:00 5.1 2 Nordeste 5 Nordeste 0 998.3 0.2 96
2019-04-02 07:00:00 4.7 0 Calma -- -- 0 997.9 -0.6 95
2019-04-02 06:00:00 5.1 0 Calma 8 Nordeste 0 998 -0.7 96
2019-04-02 05:00:00 5.5 5 Nordeste 11 Norte 0 998.1 -1 96
2019-04-02 04:00:00 5.4 0 Calma 4 Sur 0 998.5 -0.8 93
2019-04-02 03:00:00 5.9 0 Calma -- -- 0 998.7 -0.8 92
2019-04-02 02:00:00 6.8 0 Calma -- -- 0 999.1 -0.7 92
2019-04-02 01:00:00 7.6 0 Calma -- -- 0 999.3 -0.4 88
2019-04-02 00:00:00 8.9 0 Calma 8 Sudoeste 0 999.5 0.1 91
2019-04-01 23:00:00 9.6 0 Calma 8 Sur 0 999.8 1.1 88
2019-04-01 22:00:00 10.2 5 Sur 13 Sur 0 999.7 1.3 88
2019-04-01 21:00:00 11.4 10 Sur 17 Sur 0 999.4 1.2 79
2019-04-01 20:00:00 13.1 14 Sur 22 Sur 0 998.7 0.5 70
2019-04-01 19:00:00 15.6 18 Sur 28 Sur 0 998.4 0.3 55
2019-04-01 18:00:00 17.3 21 Sudoeste 28 Sur 0 998.2 -0.2 47
2019-04-01 17:00:00 18.7 20 Sudoeste 30 Sudoeste 0 998.2 -0.7 40
2019-04-01 16:00:00 19.8 17 Sudeste 30 Sudeste 0 998.1 -1.4 38
2019-04-01 15:00:00 19.5 20 Sudeste 33 Sudeste 0 998.4 -1.5 38
2019-04-01 14:00:00 20.1 10 Sur 24 Sudeste 0 998.9 -1 34
2019-04-01 13:00:00 18.3 4 Sudoeste 17 Sur 0 999.5 -0.1 38
2019-04-01 12:00:00 17.1 3 Sur 13 Sur 0 999.9 0.7 35
2019-04-01 11:00:00 14.5 5 Sur 9 Sur 0 999.9 1.1 56
2019-04-01 10:00:00 11.1 6 Sur 11 Sur 0 999.6 1 75
2019-04-01 09:00:00 9.1 0 Calma 8 Sudeste 0 999.2 0.5 83
2019-04-01 08:00:00 6.3 0 Calma 5 Nordeste 0 998.8 0 93
2019-04-01 07:00:00 6 5 Nordeste 8 Nordeste 0 998.6 -0.2 94
2019-04-01 06:00:00 6.7 0 Calma 4 Norte 0 998.7 -0.4 93
2019-04-01 05:00:00 6.8 0 Calma 5 Oeste 0 998.8 -0.6 92
2019-04-01 04:00:00 7.2 0 Calma 4 Noroeste 0 998.8 -0.9 93
2019-04-01 03:00:00 6.9 4 Este 9 Noroeste 0 999.1 -0.7 90
2019-04-01 02:00:00 8.7 7 Noroeste 9 Noroeste 0 999.4 -0.6 90
2019-04-01 01:00:00 8.8 4 Nordeste 8 Nordeste 0 999.7 -0.4 89
2019-04-01 00:00:00 9.8 0 Calma 5 Noroeste 0 999.8 -0.2 85
2019-03-31 23:00:00 10.7 0 Calma 5 Noroeste 0 1000 0.1 86
2019-03-31 22:00:00 11.4 4 Este 9 Sudeste 0 1000.1 0.3 82
2019-03-31 21:00:00 12.3 5 Sudeste 11 Sur 0 1000 0.3 74
2019-03-31 20:00:00 13.5 8 Sur 18 Sudeste 0 999.9 0 67
2019-03-31 19:00:00 15.2 13 Sudeste 24 Sur 0 999.8 -0.5 57
2019-03-31 18:00:00 17.1 16 Sudeste 26 Sudeste 0 999.7 -1.3 50
2019-03-31 17:00:00 17.8 17 Sudeste 26 Sur 0 999.9 -1.9 49
2019-03-31 16:00:00 17.7 8 Sudeste 18 Nordeste 0 1000.3 -2.1 55
2019-03-31 15:00:00 17.5 10 Nordeste 17 Este 0 1001 -1.5 54
2019-03-31 14:00:00 16.7 5 Este 17 Este 0 1001.8 -1.2 56
2019-03-31 13:00:00 16.3 8 Este 21 Nordeste 0 1002.4 -0.6 59
2019-03-31 12:00:00 15.3 12 Nordeste 17 Norte 0 1002.5 -0.3 65
2019-03-31 11:00:00 13 8 Nordeste 15 Norte 0 1003 0.4 75
2019-03-31 10:00:00 9.7 5 Nordeste 9 Nordeste 0 1003 0.2 86
2019-03-31 09:00:00 7.7 2 Norte 8 Norte 0 1002.8 -0.3 94
2019-03-31 08:00:00 6 5 Norte 8 Norte 0 1002.6 -0.8 97
2019-03-31 07:00:00 4.6 4 Nordeste 11 Sur 0 1002.8 -0.9 98
2019-03-31 06:00:00 2.8 8 Norte 9 Nordeste 0 1003.1 -1 96
2019-03-31 05:00:00 3.7 2 Noroeste 5 Noroeste 0 1003.4 -1.2 95
2019-03-31 03:00:00 4.6 0 Calma 5 Noroeste 0 1004.1 -2.1 94
2019-03-31 01:00:00 5.1 0 Calma 5 Nordeste 0 1004.6 -1.8 94
2019-03-31 00:00:00 5.5 0 Calma 8 Sudeste 0 1005.5 -0.5 89
2019-03-30 23:00:00 6.8 0 Calma 8 Oeste 0 1006.2 0.8 88
2019-03-30 22:00:00 8.4 7 Oeste 8 Oeste 0 1006.4 1.2 87
2019-03-30 21:00:00 9.3 5 Oeste -- -- 0 1006 0.8 84
2019-03-30 20:00:00 10.2 6 Sur 15 Sudeste 0 1005.4 0.3 79
2019-03-30 19:00:00 12.2 12 Sudeste 22 Sudeste 0 1005.2 -0.2 70
2019-03-30 18:00:00 14 16 Sudeste 28 Sudeste 0 1005.2 -0.9 61
2019-03-30 17:00:00 15.9 17 Sudeste 30 Sudeste 0 1005.1 -1.6 49
2019-03-30 16:00:00 16.9 19 Sudeste 30 Sudeste 0 1005.4 -1.9 48
2019-03-30 15:00:00 17.5 16 Sur 30 Sur 0 1006.1 -2 40
2019-03-30 14:00:00 17.1 16 Sur 28 Sur 0 1006.7 -1.8 45
2019-03-30 13:00:00 16.9 10 Sur 22 Sur 0 1007.3 -1.6 48
2019-03-30 12:00:00 15.4 16 Sur 26 Sur 0 1008.1 -1 54
2019-03-30 11:00:00 15.1 10 Sudoeste 21 Sur 0 1008.5 -0.6 57
2019-03-30 10:00:00 13.3 4 Sur 8 Sur 0 1008.9 -0.1 56
2019-03-30 09:00:00 9.6 0 Calma 5 Sur 0 1009.1 0.1 62
2019-03-30 08:00:00 5.4 0 Calma -- -- 0 1009.1 0 76
2019-03-30 07:00:00 0.5 0 Calma -- -- 0 1009 -0.3 88
2019-03-30 06:00:00 0.9 0 Calma -- -- 0 1009 -0.7 87
2019-03-30 05:00:00 1.1 0 Calma -- -- 0 1009.1 -0.9 88
2019-03-30 04:00:00 1.7 0 Calma -- -- 0 1009.3 -0.9 85
2019-03-30 03:00:00 1.7 0 Calma -- -- 0 1009.7 -0.8 83
2019-03-30 02:00:00 2.3 0 Calma 8 Nordeste 0 1010 -0.6 84
2019-03-30 01:00:00 2.7 3 Nordeste 5 Nordeste 0 1010.2 -0.5 79
2019-03-30 00:00:00 4.7 4 Oeste -- -- 0 1010.5 -0.2 75
2019-03-29 23:00:00 4.5 3 Este 5 Este 0 1010.6 0 75
2019-03-29 22:00:00 6.9 0 Calma 5 Oeste 0 1010.7 0.3 67
2019-03-29 21:00:00 9 0 Calma 9 Sur 0 1010.7 -- 60
2019-03-29 20:00:00 10.5 6 Sudeste 11 Sudeste 0 1010.6 -- 51
2019-03-29 19:00:00 13.1 8 Sudeste 17 Sudeste 0 1010.4 -- 40
2019-03-29 18:00:00 -- -- -- -- -- -- -- -- --
2019-03-29 17:00:00 -- -- -- -- -- -- -- -- --
2019-03-29 16:00:00 -- -- -- -- -- -- -- -- --
2019-03-29 15:00:00 -- -- -- -- -- -- -- -- --
2019-03-29 14:00:00 18 17 Sudeste 33 Sudeste 0 1011.3 -1.4 32
2019-03-29 13:00:00 17.9 15 Sudeste 28 Sudeste 0 1011.8 -1.1 30
2019-03-29 12:00:00 17.6 16 Sudeste 28 Sudeste 0 1012.1 -0.7 31
2019-03-29 11:00:00 16.4 12 Sudeste 21 Sur 0 1012.7 0.1 43
2019-03-29 10:00:00 14.5 3 Este 13 Este 0 1012.9 0.8 56
2019-03-29 09:00:00 10.5 2 Este 8 Este 0 1012.8 1.3 68
2019-03-29 08:00:00 5.5 5 Nordeste 9 Oeste 0 1012.6 1.3 86
2019-03-29 07:00:00 2.3 0 Calma 8 Oeste 0 1012.1 0.8 92
2019-03-29 06:00:00 2.1 0 Calma 11 Norte 0 1011.5 0.3 93
2019-03-29 05:00:00 2.2 8 Nordeste 9 Nordeste 0 1011.3 0 93
2019-03-29 04:00:00 3.5 0 Calma 9 Nordeste 0 1011.3 -0.1 91
2019-03-29 03:00:00 3.7 6 Nordeste 8 Nordeste 0 1011.2 -0.4 90
2019-03-29 02:00:00 4.1 0 Calma 8 Nordeste 0 1011.3 -0.4 91
2019-03-29 01:00:00 4.9 2 Nordeste 5 Nordeste 0 1011.4 -0.4 87
2019-03-29 00:00:00 5.6 4 Noroeste 8 Oeste 0 1011.6 0 83
2019-03-28 23:00:00 6.2 5 Nordeste 11 Nordeste 0 1011.7 0.7 81
2019-03-28 22:00:00 8 3 Sudoeste -- -- 0 1011.8 1 77
2019-03-28 21:00:00 9.8 4 Sudoeste 11 Sudoeste 0 1011.6 1.2 69
2019-03-28 20:00:00 10.9 8 Sudoeste 13 Sudoeste 0 1011 0.9 59
2019-03-28 19:00:00 12.2 10 Sudoeste 22 Sur 0 1010.8 0.7 54
2019-03-28 18:00:00 15.2 20 Sudoeste 28 Sur 0 1010.4 0.4 43
2019-03-28 17:00:00 16.9 15 Sudeste 26 Sudeste 0 1010.1 -0.2 45
2019-03-28 16:00:00 17.5 18 Sudeste 33 Sudeste 0 1010.1 -0.5 44
2019-03-28 15:00:00 17.9 18 Sudeste 32 Sudeste 0 1010 -1.3 43
2019-03-28 14:00:00 18.1 21 Sudeste 33 Sudeste 0 1010.3 -1.6 43
2019-03-28 13:00:00 19.7 6 Sur 15 Este 0 1010.6 -1.7 27
2019-03-28 12:00:00 18 6 Sur 17 Oeste 0 1011.3 -1 31
2019-03-28 11:00:00 16.9 5 Sudeste 15 Sur 0 1011.9 -0.2 34
2019-03-28 10:00:00 14.9 3 Sudeste 9 Sudeste 0 1012.3 0.6 43
2019-03-28 09:00:00 10.5 2 Sudeste 8 Este 0 1012.3 1 56
2019-03-28 08:00:00 6 3 Sur -- -- 0 1012.1 0.9 74
2019-03-28 07:00:00 2.6 5 Sur 5 Sur 0 1011.7 0.8 83
2019-03-28 06:00:00 2.3 0 Calma 8 Nordeste 0 1011.3 0.2 83
2019-03-28 05:00:00 2.5 4 Este 9 Nordeste 0 1011.2 0.2 81
2019-03-28 04:00:00 3.5 5 Norte 11 Oeste 0 1010.9 -0.2 76
2019-03-28 03:00:00 4.3 6 Sudoeste 11 Sur 0 1011.1 0.1 75
2019-03-28 02:00:00 5.8 5 Norte 13 Norte 0 1011 0.2 69
2019-03-28 01:00:00 4.6 3 Nordeste 13 Noroeste 0 1011.1 0.6 77
2019-03-28 00:00:00 5.8 6 Noroeste 9 Noroeste 0 1011 1.2 75
2019-03-27 23:00:00 5.5 5 Norte 13 Nordeste 0 1010.8 1.8 79
2019-03-27 22:00:00 7.6 5 Oeste 9 Nordeste 0 1010.5 2 71
2019-03-27 21:00:00 7.6 6 Nordeste 15 Nordeste 0 1009.8 1.9 69
2019-03-27 20:00:00 9.7 5 Este 17 Sur 0 1009 1.3 62
2019-03-27 19:00:00 11.6 12 Sur 24 Sur 0 1008.5 1 53
2019-03-27 18:00:00 15.2 14 Sudoeste 26 Sur 0 1007.9 0.4 44
2019-03-27 17:00:00 16.6 18 Sur 30 Sudoeste 0 1007.7 0.3 37
2019-03-27 16:00:00 18.1 23 Sudoeste 33 Sudoeste 0 1007.5 0 32
2019-03-27 15:00:00 19.1 22 Sur 39 Sudoeste 0 1007.5 -0.2 28
2019-03-27 14:00:00 19.7 12 Sur 22 Sur 0 1007.4 -0.5 22
2019-03-27 13:00:00 19.3 5 Norte 22 Sudeste 0 1007.5 -0.5 16
2019-03-27 12:00:00 18.2 8 Este 17 Nordeste 0 1007.7 -- 18
2019-03-27 11:00:00 17.2 3 Este 17 Este 0 1007.9 -0.5 21
2019-03-27 10:00:00 15.1 6 Este -- -- -- 1008 -0.2 25
2019-03-27 09:00:00 -- -- -- -- -- -- -- -- --
2019-03-27 08:00:00 7 7 Nordeste 13 Noroeste 0 1008.4 0.6 48
2019-03-27 07:00:00 5.8 8 Noroeste 17 Noroeste 0 1008.2 0.4 41
2019-03-27 06:00:00 5.9 9 Noroeste 21 Norte 0 1007.9 0 40
2019-03-27 05:00:00 6.9 12 Norte 21 Norte 0 1007.8 -0.1 38
2019-03-27 04:00:00 8 9 Norte 21 Norte 0 1007.8 0.3 34
2019-03-27 03:00:00 9.3 15 Norte 26 Norte 0 1007.9 0.6 32
2019-03-27 02:00:00 11.2 18 Nordeste 35 Nordeste 0 1007.9 1.2 27
2019-03-27 01:00:00 11.5 18 Nordeste 30 Norte 0 1007.5 1.3 27
2019-03-27 00:00:00 9.3 3 Sudoeste 21 Nordeste 0 1007.3 1.1 30